Time;durP1;ratioP1;P1;durP2;ratioP2;P2;SDS_P1;SDS_P2;PMS_P1;PMS_P2;Temp;Humidity;BMP_temperature;BMP_pressure;BME280_temperature;BME280_humidity;BME280_pressure;Samples;Min_cycle;Max_cycle;Signal;HPM_P1;HPM_P2
2022/03/04 00:00:35;;;;;;;1327.60;999.90;;;;;;;-1.38;100.00;101807.28;5029193;28;20054;-81
2022/03/04 00:03:09;;;;;;;1327.10;999.90;;;;;;;-1.35;100.00;101808.75;5024405;28;20049;-81
2022/03/04 00:05:43;;;;;;;1325.03;999.90;;;;;;;-1.29;100.00;101805.41;5035596;28;20048;-81
2022/03/04 00:08:17;;;;;;;1326.80;999.90;;;;;;;-1.26;100.00;101803.22;5026376;28;20057;-80
2022/03/04 00:10:50;;;;;;;1326.30;999.90;;;;;;;-1.30;100.00;101812.56;5029810;28;20053;-81
2022/03/04 00:13:24;;;;;;;1326.40;999.90;;;;;;;-1.37;100.00;101798.25;5018501;28;20052;-80
2022/03/04 00:15:57;;;;;;;1324.72;999.90;;;;;;;-1.25;100.00;101804.88;5030103;28;20049;-81
2022/03/04 00:18:30;;;;;;;1328.80;999.90;;;;;;;-1.25;100.00;101804.06;5032426;28;20061;-81
2022/03/04 00:20:58;;;;;;;1326.45;999.90;;;;;;;-1.23;100.00;101808.22;5031227;28;20057;-81
2022/03/04 00:23:33;;;;;;;1324.93;999.90;;;;;;;-1.30;100.00;101796.56;5030518;28;20050;-81
2022/03/04 00:26:07;;;;;;;1327.75;999.90;;;;;;;-1.26;100.00;101797.88;5024858;28;20052;-81
2022/03/04 00:28:35;;;;;;;1330.55;999.90;;;;;;;-1.29;100.00;101811.56;5020517;28;20049;-81
2022/03/04 00:31:08;;;;;;;1331.72;999.90;;;;;;;-1.35;100.00;101809.63;5029642;28;20050;-81
2022/03/04 00:33:41;;;;;;;1330.72;999.90;;;;;;;-1.37;100.00;101809.78;5024560;28;20054;-80
2022/03/04 00:36:09;;;;;;;1333.47;999.90;;;;;;;-1.32;100.00;101821.78;5029907;28;20053;-81
2022/03/04 00:38:43;;;;;;;1343.53;999.90;;;;;;;-1.40;100.00;101817.31;5026210;28;20038;-81
2022/03/04 00:41:18;;;;;;;1341.80;999.90;;;;;;;-1.67;100.00;101813.19;5025798;28;20064;-80
2022/03/04 00:43:47;;;;;;;1345.50;999.90;;;;;;;-1.63;100.00;101817.19;5030554;28;20050;-81
2022/03/04 00:46:20;;;;;;;1354.95;999.90;;;;;;;-1.53;100.00;101815.19;5032055;28;20053;-81
2022/03/04 00:48:53;;;;;;;1359.35;999.90;;;;;;;-1.46;100.00;101818.81;5018660;28;20050;-81
2022/03/04 00:51:27;;;;;;;1362.80;999.90;;;;;;;-1.51;100.00;101818.50;5026554;28;20060;-81
2022/03/04 00:54:01;;;;;;;1364.00;999.90;;;;;;;-1.50;100.00;101814.84;5026730;28;20048;-81
2022/03/04 00:56:34;;;;;;;1364.00;999.90;;;;;;;-1.47;100.00;101819.81;5028294;28;20053;-81
2022/03/04 00:59:07;;;;;;;1361.75;999.90;;;;;;;-1.47;100.00;101811.81;5040286;28;20390;-80
2022/03/04 01:01:41;;;;;;;1362.57;999.90;;;;;;;-1.43;100.00;101820.31;5040196;28;20071;-81
2022/03/04 01:04:14;;;;;;;1360.05;999.90;;;;;;;-1.50;100.00;101814.84;5037761;28;20076;-81
2022/03/04 01:06:47;;;;;;;1356.03;999.90;;;;;;;-1.73;100.00;101818.25;5024277;28;20471;-80
2022/03/04 01:09:22;;;;;;;1357.10;999.90;;;;;;;-1.61;100.00;101809.88;5024089;28;20108;-81
2022/03/04 01:11:55;;;;;;;1358.55;999.90;;;;;;;-1.61;100.00;101812.53;5029517;28;20048;-81
2022/03/04 01:14:28;;;;;;;1360.95;999.90;;;;;;;-1.57;100.00;101814.69;5025361;28;20489;-81
2022/03/04 01:17:01;;;;;;;1357.18;999.90;;;;;;;-1.52;100.00;101816.81;5027217;28;20057;-81
2022/03/04 01:19:35;;;;;;;1360.18;999.90;;;;;;;-1.48;100.00;101820.00;5019811;28;20045;-81
2022/03/04 01:22:08;;;;;;;1361.80;999.90;;;;;;;-1.53;100.00;101815.19;5029282;28;20037;-81
2022/03/04 01:24:37;;;;;;;1365.50;999.90;;;;;;;-1.61;100.00;101813.34;5040430;28;20120;-81
2022/03/04 01:27:10;;;;;;;1367.10;999.90;;;;;;;-1.54;100.00;101810.84;5027171;28;20729;-81
2022/03/04 01:29:38;;;;;;;1363.93;999.90;;;;;;;-1.49;100.00;101811.16;5025244;28;20052;-81
2022/03/04 01:32:11;;;;;;;1367.32;999.90;;;;;;;-1.44;100.00;101821.31;5034422;28;20391;-81
2022/03/04 01:34:44;;;;;;;1365.03;999.90;;;;;;;-1.50;100.00;101820.16;5019849;28;20045;-81
2022/03/04 01:37:18;;;;;;;1361.78;999.90;;;;;;;-1.46;100.00;101815.34;5027743;28;20061;-81
2022/03/04 01:39:47;;;;;;;1360.45;999.90;;;;;;;-1.49;100.00;101813.84;5022710;28;20510;-81
2022/03/04 01:42:15;;;;;;;1361.88;999.90;;;;;;;-1.55;100.00;101810.03;5027292;28;20056;-80
2022/03/04 01:44:44;;;;;;;1358.95;999.90;;;;;;;-1.65;100.00;101806.69;5033186;28;20052;-81
2022/03/04 01:47:17;;;;;;;1361.85;999.90;;;;;;;-1.61;100.00;101810.69;5019853;28;20049;-81
2022/03/04 01:49:45;;;;;;;1362.20;999.90;;;;;;;-1.48;100.00;101809.31;5020562;28;20050;-81
2022/03/04 01:52:20;;;;;;;1357.80;999.90;;;;;;;-1.51;100.00;101807.00;5023977;28;20056;-81
2022/03/04 01:54:54;;;;;;;1360.30;999.90;;;;;;;-1.50;100.00;101798.00;5023393;28;20042;-80
2022/03/04 01:57:27;;;;;;;1357.43;999.90;;;;;;;-1.57;100.00;101800.50;5037295;28;20075;-81
2022/03/04 02:00:00;;;;;;;1357.95;999.90;;;;;;;-1.57;100.00;101795.16;5033195;28;20052;-82
2022/03/04 02:02:39;;;;;;;1362.15;999.90;;;;;;;-1.57;100.00;101800.50;5022267;28;20041;-81
2022/03/04 02:05:13;;;;;;;1364.47;999.90;;;;;;;-1.54;100.00;101800.16;5031130;28;20053;-81
2022/03/04 02:07:46;;;;;;;1362.75;999.90;;;;;;;-1.55;100.00;101802.00;5024205;28;20060;-81
2022/03/04 02:10:21;;;;;;;1362.95;999.90;;;;;;;-1.51;100.00;101788.31;5024863;28;20053;-82
2022/03/04 02:12:54;;;;;;;1362.88;999.90;;;;;;;-1.70;100.00;101787.69;5024164;28;20041;-81
2022/03/04 02:15:27;;;;;;;1363.63;999.90;;;;;;;-1.54;100.00;101798.31;5020057;28;20053;-81
2022/03/04 02:18:00;;;;;;;1364.68;999.90;;;;;;;-1.49;100.00;101794.28;5016904;28;20054;-82
2022/03/04 02:20:30;;;;;;;1362.53;999.90;;;;;;;-1.57;100.00;101789.84;5027809;28;20049;-81
2022/03/04 02:23:05;;;;;;;1360.32;999.90;;;;;;;-1.52;100.00;101792.78;5025300;28;20045;-81
2022/03/04 02:25:40;;;;;;;1362.20;999.90;;;;;;;-1.53;100.00;101796.50;5025908;28;20397;-81
2022/03/04 02:28:13;;;;;;;1357.32;999.90;;;;;;;-1.57;100.00;101790.66;5029946;28;20600;-81
2022/03/04 02:30:41;;;;;;;1355.72;999.90;;;;;;;-1.57;100.00;101797.84;5037426;28;20535;-81
2022/03/04 02:33:14;;;;;;;1358.03;999.90;;;;;;;-1.60;100.00;101795.50;5029045;28;20057;-82
2022/03/04 02:35:48;;;;;;;1362.35;999.90;;;;;;;-1.51;100.00;101793.66;5028412;28;20045;-81
2022/03/04 02:38:24;;;;;;;1362.13;999.90;;;;;;;-1.52;100.00;101787.47;5023540;28;20506;-82
2022/03/04 02:40:58;;;;;;;1361.20;999.90;;;;;;;-1.50;100.00;101795.31;5024044;28;20042;-81
2022/03/04 02:43:31;;;;;;;1364.88;999.90;;;;;;;-1.59;100.00;101794.50;5042077;28;20563;-81
2022/03/04 02:46:05;;;;;;;1363.68;999.90;;;;;;;-1.66;100.00;101799.69;5028412;28;20534;-81
2022/03/04 02:48:38;;;;;;;1364.00;999.90;;;;;;;-1.68;100.00;101784.88;5019575;28;20065;-82
2022/03/04 02:51:11;;;;;;;1366.20;999.90;;;;;;;-1.54;100.00;101808.16;5030225;28;20061;-81
2022/03/04 02:53:41;;;;;;;1366.13;999.90;;;;;;;-1.75;100.00;101787.38;5025047;28;20045;-81
2022/03/04 02:56:14;;;;;;;1362.03;999.90;;;;;;;-1.68;100.00;101796.38;5019937;28;20050;-81
2022/03/04 02:58:47;;;;;;;1364.35;999.90;;;;;;;-1.63;100.00;101802.03;5023583;28;20045;-81
2022/03/04 03:01:20;;;;;;;1362.68;999.90;;;;;;;-1.65;100.00;101801.34;5029325;28;20058;-81
2022/03/04 03:03:53;;;;;;;1359.20;999.90;;;;;;;-1.59;100.00;101799.84;5030624;28;20409;-81
2022/03/04 03:06:26;;;;;;;1361.43;999.90;;;;;;;-1.61;100.00;101801.84;5019434;28;20042;-81
2022/03/04 03:08:56;;;;;;;1362.75;999.90;;;;;;;-1.63;100.00;101798.50;5027083;28;20045;-81
2022/03/04 03:11:29;;;;;;;1361.10;999.90;;;;;;;-1.58;100.00;101798.84;5025801;28;20516;-81
2022/03/04 03:14:02;;;;;;;1360.78;999.90;;;;;;;-1.57;100.00;101808.53;5027378;28;20053;-81
2022/03/04 03:16:35;;;;;;;1359.18;999.90;;;;;;;-1.61;100.00;101807.19;5026507;28;20431;-81
2022/03/04 03:19:09;;;;;;;1362.38;999.90;;;;;;;-1.61;100.00;101807.19;5020892;28;20044;-81
2022/03/04 03:21:42;;;;;;;1371.50;999.90;;;;;;;-1.63;100.00;101801.19;5055440;28;20052;-82
2022/03/04 03:24:16;;;;;;;1368.78;999.90;;;;;;;-1.61;100.00;101801.84;5022611;28;20065;-82
2022/03/04 03:26:44;;;;;;;1370.35;999.90;;;;;;;-1.58;100.00;101809.50;5037923;28;20048;-82
2022/03/04 03:29:17;;;;;;;1371.97;999.90;;;;;;;-1.59;100.00;101803.34;5043732;28;20398;-82
2022/03/04 03:31:45;;;;;;;1371.57;999.90;;;;;;;-1.54;100.00;101809.00;5024885;28;20054;-82
2022/03/04 03:34:14;;;;;;;1368.55;999.90;;;;;;;-1.69;100.00;101794.69;5028989;28;20057;-82
2022/03/04 03:36:42;;;;;;;1370.45;999.90;;;;;;;-1.73;100.00;101807.56;5030386;28;20052;-81
2022/03/04 03:39:10;;;;;;;1362.30;999.90;;;;;;;-1.74;100.00;101808.56;5026216;28;20065;-82
2022/03/04 03:41:45;;;;;;;1367.07;999.90;;;;;;;-1.93;100.00;101783.06;5028398;28;20041;-81
2022/03/04 03:44:13;;;;;;;1365.20;999.90;;;;;;;-1.86;100.00;101795.72;5034799;28;20049;-82
2022/03/04 03:46:41;;;;;;;1369.68;999.90;;;;;;;-1.91;100.00;101798.91;5054129;28;20041;-82
2022/03/04 03:49:14;;;;;;;1371.55;999.90;;;;;;;-1.97;100.00;101792.41;5025821;28;21781;-81
2022/03/04 03:51:47;;;;;;;1373.60;999.90;;;;;;;-1.90;100.00;101793.41;5041520;28;20056;-81
2022/03/04 03:54:16;;;;;;;1375.53;999.90;;;;;;;-1.83;100.00;101800.75;5029878;28;20060;-81
2022/03/04 03:56:45;;;;;;;1374.90;999.90;;;;;;;-1.79;100.00;101808.22;5036243;28;20045;-81
2022/03/04 03:59:18;;;;;;;1369.78;999.90;;;;;;;-1.75;100.00;101808.72;5027191;28;20080;-81
2022/03/04 04:01:51;;;;;;;1365.10;999.90;;;;;;;-1.90;100.00;101811.25;5031894;28;20057;-82
2022/03/04 04:04:24;;;;;;;1362.63;999.90;;;;;;;-1.95;100.00;101814.41;5035949;28;20069;-82
2022/03/04 04:06:58;;;;;;;1362.18;999.90;;;;;;;-1.81;100.00;101810.25;5030617;28;20537;-81
2022/03/04 04:09:26;;;;;;;1360.65;999.90;;;;;;;-1.93;100.00;101814.28;5033655;28;20053;-81
2022/03/04 04:12:00;;;;;;;1362.60;999.90;;;;;;;-1.86;100.00;101817.06;5028997;28;20045;-82
2022/03/04 04:14:29;;;;;;;1358.32;999.90;;;;;;;-1.93;100.00;101823.09;5032359;28;20064;-81
2022/03/04 04:17:02;;;;;;;1352.68;999.90;;;;;;;-2.03;100.00;101811.78;5032705;28;20041;-81
2022/03/04 04:19:35;;;;;;;1350.90;999.90;;;;;;;-1.86;100.00;101833.09;5024322;28;20060;-81
2022/03/04 04:22:08;;;;;;;1349.57;999.90;;;;;;;-2.04;100.00;101820.78;5034698;28;20068;-81
2022/03/04 04:24:36;;;;;;;1351.50;999.90;;;;;;;-2.03;100.00;101826.94;5022067;28;20037;-81
2022/03/04 04:27:10;;;;;;;1352.55;999.90;;;;;;;-1.96;100.00;101825.25;5031616;28;20045;-82
2022/03/04 04:29:44;;;;;;;1361.43;999.90;;;;;;;-1.97;100.00;101832.44;5025915;28;20478;-81
2022/03/04 04:32:17;;;;;;;1370.57;999.90;;;;;;;-1.91;100.00;101834.41;5026797;28;20053;-81
2022/03/04 04:34:50;;;;;;;1375.05;999.90;;;;;;;-1.85;100.00;101834.75;5026417;28;20053;-82
2022/03/04 04:37:23;;;;;;;1363.38;999.90;;;;;;;-1.90;100.00;101841.44;5025144;28;20045;-82
2022/03/04 04:39:51;;;;;;;1361.13;999.90;;;;;;;-1.88;100.00;101843.94;5029621;28;20053;-81
2022/03/04 04:42:26;;;;;;;1362.43;999.90;;;;;;;-1.82;100.00;101843.28;5032953;28;20064;-81
2022/03/04 04:44:59;;;;;;;1366.40;999.90;;;;;;;-1.90;100.00;101836.09;5029046;28;20045;-81
2022/03/04 04:47:33;;;;;;;1367.30;999.90;;;;;;;-1.89;100.00;101828.94;5029538;28;20041;-83
2022/03/04 04:50:07;;;;;;;1359.00;999.90;;;;;;;-1.77;100.00;101840.06;5025510;28;20379;-84
2022/03/04 04:52:40;;;;;;;1359.60;999.90;;;;;;;-1.85;100.00;101837.41;5023246;28;20049;-83
2022/03/04 04:55:13;;;;;;;1356.43;999.90;;;;;;;-1.78;100.00;101841.06;5024970;28;20054;-83
2022/03/04 04:57:43;;;;;;;1361.57;999.90;;;;;;;-1.85;100.00;101837.41;5018093;28;20045;-83
2022/03/04 05:00:12;;;;;;;1365.88;999.90;;;;;;;-1.79;100.00;101837.59;5024567;28;20045;-82
2022/03/04 05:02:40;;;;;;;1363.78;999.90;;;;;;;-1.90;100.00;101846.78;5025397;28;20434;-83
2022/03/04 05:05:13;;;;;;;1362.28;999.90;;;;;;;-1.88;100.00;101833.25;5022720;28;20061;-82
2022/03/04 05:07:47;;;;;;;1365.65;999.90;;;;;;;-1.85;100.00;101837.41;5026084;28;20388;-81
2022/03/04 05:10:15;;;;;;;1372.68;999.90;;;;;;;-1.89;100.00;101840.44;5027710;28;20433;-82
2022/03/04 05:12:49;;;;;;;1372.38;999.90;;;;;;;-1.78;100.00;101833.06;5025313;28;20052;-82
2022/03/04 05:15:17;;;;;;;1376.15;999.90;;;;;;;-1.88;100.00;101838.59;5027452;28;20505;-82
2022/03/04 05:17:51;;;;;;;1372.13;999.90;;;;;;;-1.91;100.00;101838.94;5019716;28;20042;-82
2022/03/04 05:20:24;;;;;;;1370.57;999.90;;;;;;;-1.89;100.00;101842.28;5020733;28;20054;-81
2022/03/04 05:22:52;;;;;;;1363.93;999.90;;;;;;;-1.93;100.00;101841.78;5022918;28;20053;-81
2022/03/04 05:25:26;;;;;;;1358.80;999.90;;;;;;;-1.86;100.00;101841.09;5028060;28;20060;-82
2022/03/04 05:28:00;;;;;;;1356.22;999.90;;;;;;;-1.88;100.00;101844.78;5027430;28;20048;-81
2022/03/04 05:30:30;;;;;;;1351.07;999.90;;;;;;;-2.13;100.00;101849.28;5025448;28;20045;-81
2022/03/04 05:33:03;;;;;;;1348.13;999.90;;;;;;;-1.92;100.00;101858.59;5025446;28;20045;-81
2022/03/04 05:35:37;;;;;;;1348.13;999.90;;;;;;;-1.94;100.00;101864.13;5039702;28;20553;-81
2022/03/04 05:38:10;;;;;;;1350.03;999.90;;;;;;;-1.94;100.00;101865.97;5023314;28;20053;-81
2022/03/04 05:40:43;;;;;;;1349.90;999.90;;;;;;;-1.87;100.00;101861.63;5021972;28;20049;-81
2022/03/04 05:43:17;;;;;;;1347.10;999.90;;;;;;;-1.86;100.00;101862.44;5025389;28;20481;-82
2022/03/04 05:45:51;;;;;;;1344.18;999.90;;;;;;;-1.85;100.00;101866.78;5022912;28;20045;-80
2022/03/04 05:48:24;;;;;;;1345.38;999.90;;;;;;;-1.93;100.00;101856.97;5027158;28;20045;-81
2022/03/04 05:50:57;;;;;;;1344.43;999.90;;;;;;;-2.00;100.00;101864.78;5027824;28;20042;-81
2022/03/04 05:53:31;;;;;;;1349.40;999.90;;;;;;;-1.81;100.00;101862.78;5027957;28;20036;-81
2022/03/04 05:56:06;;;;;;;1343.30;999.90;;;;;;;-1.93;100.00;101862.28;5026514;28;20383;-82
2022/03/04 05:58:42;;;;;;;1345.68;999.90;;;;;;;-1.91;100.00;101866.44;5015967;28;20413;-81
2022/03/04 06:01:15;;;;;;;1349.03;999.90;;;;;;;-1.94;100.00;101860.63;5027892;28;20410;-81
2022/03/04 06:03:48;;;;;;;1347.63;999.90;;;;;;;-1.99;100.00;101862.94;5025779;28;20049;-81
2022/03/04 06:06:21;;;;;;;1351.10;999.90;;;;;;;-1.97;100.00;101868.97;5025254;28;20409;-81
2022/03/04 06:08:49;;;;;;;1351.32;999.90;;;;;;;-1.90;100.00;101873.44;5034954;28;20401;-81
2022/03/04 06:11:22;;;;;;;1350.78;999.90;;;;;;;-2.00;100.00;101864.78;5027595;28;20060;-81
2022/03/04 06:13:57;;;;;;;1352.18;999.90;;;;;;;-1.92;100.00;101867.47;5030053;28;20041;-81
2022/03/04 06:16:25;;;;;;;1353.35;999.90;;;;;;;-1.97;100.00;101871.63;5031604;28;20486;-81
2022/03/04 06:18:58;;;;;;;1352.32;999.90;;;;;;;-1.94;100.00;101879.28;5019751;28;20056;-81
2022/03/04 06:21:31;;;;;;;1349.25;999.90;;;;;;;-1.99;100.00;101870.94;5025663;28;20053;-81
2022/03/04 06:24:05;;;;;;;1355.97;999.90;;;;;;;-2.03;100.00;101870.47;5026783;28;20041;-81
2022/03/04 06:26:38;;;;;;;1355.80;999.90;;;;;;;-1.97;100.00;101874.31;5025727;28;20041;-81
2022/03/04 06:29:13;;;;;;;1353.43;999.90;;;;;;;-1.93;100.00;101873.78;5015269;28;20453;-81
2022/03/04 06:31:41;;;;;;;1352.28;999.90;;;;;;;-1.96;100.00;101874.13;5025070;28;20053;-81
2022/03/04 06:34:14;;;;;;;1356.07;999.90;;;;;;;-1.96;100.00;101878.63;5025771;28;20060;-81
2022/03/04 06:36:47;;;;;;;1355.20;999.90;;;;;;;-1.94;100.00;101868.63;5019333;28;20064;-81
2022/03/04 06:39:21;;;;;;;1355.03;999.90;;;;;;;-1.95;100.00;101866.94;5029368;28;20060;-80
2022/03/04 06:41:54;;;;;;;1351.32;999.90;;;;;;;-1.89;100.00;101883.13;5027882;28;20045;-80
2022/03/04 06:44:29;;;;;;;1353.32;999.90;;;;;;;-1.93;100.00;101864.97;5024696;28;20061;-81
2022/03/04 06:46:57;;;;;;;1355.22;999.90;;;;;;;-1.78;100.00;101894.44;5028935;28;20470;-81
2022/03/04 06:49:30;;;;;;;1352.13;999.90;;;;;;;-1.88;100.00;101898.16;5029714;28;20120;-81
2022/03/04 06:52:03;;;;;;;1353.82;999.90;;;;;;;-1.84;100.00;101892.47;5030489;28;20566;-81
2022/03/04 06:54:37;;;;;;;1353.35;999.90;;;;;;;-1.76;100.00;101893.28;5028147;28;20056;-81
2022/03/04 06:57:10;;;;;;;1359.88;999.90;;;;;;;-1.71;100.00;101896.28;5027003;28;20053;-80
2022/03/04 06:59:45;;;;;;;1361.03;999.90;;;;;;;-1.71;100.00;101898.97;5031843;28;20048;-81
2022/03/04 07:02:18;;;;;;;1365.18;999.90;;;;;;;-1.73;100.00;101903.66;5030279;28;20406;-81
2022/03/04 07:04:51;;;;;;;1368.10;999.90;;;;;;;-1.76;100.00;101887.94;5027403;28;20044;-81
2022/03/04 07:07:24;;;;;;;1369.03;999.90;;;;;;;-1.66;100.00;101900.28;5021873;28;20046;-80
2022/03/04 07:09:57;;;;;;;1375.93;999.90;;;;;;;-1.59;100.00;101903.94;5027764;28;20046;-80
2022/03/04 07:12:30;;;;;;;1372.95;999.90;;;;;;;-1.61;100.00;101900.63;5030645;28;20049;-81
2022/03/04 07:15:07;;;;;;;1375.95;999.90;;;;;;;-1.46;100.00;101900.78;5031017;28;20068;-80
2022/03/04 07:17:40;;;;;;;1377.72;999.90;;;;;;;-1.57;100.00;101894.78;5021435;28;20065;-80
2022/03/04 07:20:14;;;;;;;1379.07;999.90;;;;;;;-1.49;100.00;101907.28;5025203;28;20487;-81
2022/03/04 07:22:47;;;;;;;1384.22;999.90;;;;;;;-1.46;100.00;101908.78;5027110;28;20045;-81
2022/03/04 07:25:16;;;;;;;1381.93;999.90;;;;;;;-1.54;100.00;101901.63;5041315;28;20068;-82
2022/03/04 07:27:50;;;;;;;1390.90;999.90;;;;;;;-1.39;100.00;101894.56;5041459;28;20045;-81
2022/03/04 07:30:27;;;;;;;1388.13;999.90;;;;;;;-1.44;100.00;101893.41;5036211;28;20050;-81
2022/03/04 07:33:01;;;;;;;1389.20;999.90;;;;;;;-1.42;100.00;101897.59;5026394;28;20058;-82
2022/03/04 07:35:34;;;;;;;1391.32;999.90;;;;;;;-1.33;100.00;101905.56;5034636;28;20440;-83
2022/03/04 07:38:07;;;;;;;1384.93;999.90;;;;;;;-1.33;100.00;101900.25;5020278;28;20052;-82
2022/03/04 07:40:40;;;;;;;1389.75;999.90;;;;;;;-1.34;100.00;101906.56;5033952;28;20068;-82
2022/03/04 07:43:14;;;;;;;1393.47;999.90;;;;;;;-1.31;100.00;101911.56;5034020;28;20068;-82
2022/03/04 07:45:48;;;;;;;1396.85;999.90;;;;;;;-1.44;100.00;101899.56;5030967;28;20049;-81
2022/03/04 07:48:21;;;;;;;1407.95;999.90;;;;;;;-1.33;100.00;101925.09;5036555;28;20046;-81
2022/03/04 07:50:54;;;;;;;1424.90;999.90;;;;;;;-1.23;100.00;101928.44;5025609;28;20044;-81
2022/03/04 07:53:27;;;;;;;1433.53;999.90;;;;;;;-1.35;100.00;101916.44;5034172;28;20045;-82
2022/03/04 07:56:00;;;;;;;1444.75;999.90;;;;;;;-1.31;100.00;101919.59;5031455;28;20045;-82
2022/03/04 07:58:33;;;;;;;1449.13;999.90;;;;;;;-1.20;100.00;101936.09;5033515;28;20416;-82
2022/03/04 08:01:09;;;;;;;1452.68;999.90;;;;;;;-1.13;100.00;101930.91;5025998;28;20046;-82
2022/03/04 08:03:37;;;;;;;1461.28;999.90;;;;;;;-1.20;100.00;101927.25;5042512;28;20049;-82
2022/03/04 08:06:05;;;;;;;1466.60;999.90;;;;;;;-1.11;100.00;101941.41;5024660;28;20483;-82
2022/03/04 08:08:39;;;;;;;1474.57;999.90;;;;;;;-1.10;100.00;101938.56;5027620;28;20049;-82
2022/03/04 08:11:12;;;;;;;1477.10;999.90;;;;;;;-0.94;100.00;101939.53;5031551;28;20050;-82
2022/03/04 08:13:45;;;;;;;1484.10;999.90;;;;;;;-0.95;100.00;101936.03;5032071;28;20045;-82
2022/03/04 08:16:20;;;;;;;1480.05;999.90;;;;;;;-0.95;100.00;101946.72;5033156;28;20050;-82
2022/03/04 08:18:53;;;;;;;1496.63;999.90;;;;;;;-0.97;100.00;101948.72;5027809;28;20135;-82
2022/03/04 08:21:26;;;;;;;1517.68;999.90;;;;;;;-0.88;100.00;101939.66;5019467;28;20076;-82
2022/03/04 08:23:59;;;;;;;1520.80;999.90;;;;;;;-0.78;100.00;101947.47;5019079;28;20065;-83
2022/03/04 08:26:33;;;;;;;1532.13;999.90;;;;;;;-0.71;100.00;101947.63;5019632;28;20785;-82
2022/03/04 08:29:06;;;;;;;1536.72;999.90;;;;;;;-0.65;100.00;101948.78;5026177;28;20500;-82
2022/03/04 08:31:41;;;;;;;1530.60;999.90;;;;;;;-0.63;100.00;101944.91;5008708;28;20049;-82
2022/03/04 08:34:09;;;;;;;1545.47;999.90;;;;;;;-0.49;100.00;101938.00;5010559;28;20144;-82
2022/03/04 08:36:38;;;;;;;1548.30;999.90;;;;;;;-0.57;100.00;101946.88;5018763;28;20053;-82
2022/03/04 08:39:09;;;;;;;1576.40;999.90;;;;;;;-0.45;100.00;101951.84;5008840;28;20391;-82
2022/03/04 08:41:42;;;;;;;1602.68;999.90;;;;;;;-0.43;100.00;101953.34;5012695;28;20489;-83
2022/03/04 08:44:17;;;;;;;1624.22;999.90;;;;;;;-0.35;100.00;101952.47;5014315;28;20076;-82
2022/03/04 08:46:48;;;;;;;1647.80;999.90;;;;;;;-0.27;100.00;101955.09;5006313;28;20064;-82
2022/03/04 08:49:18;;;;;;;1653.65;999.90;;;;;;;-0.33;100.00;101937.09;5009976;28;20123;-82
2022/03/04 08:51:47;;;;;;;1683.82;999.90;;;;;;;-0.18;100.00;101963.88;5014004;28;20050;-82
2022/03/04 08:54:20;;;;;;;1710.55;999.90;;;;;;;-0.21;100.00;101962.44;5015467;28;20064;-83
2022/03/04 08:56:48;;;;;;;1736.50;999.90;;;;;;;-0.20;100.00;101956.03;5011030;28;20056;-83
2022/03/04 08:59:21;;;;;;;1743.55;999.90;;;;;;;0.00;100.00;101971.66;5013641;28;20711;-83
2022/03/04 09:01:57;;;;;;;1751.25;999.90;;;;;;;-0.12;100.00;101971.22;5013240;28;20508;-82
2022/03/04 09:04:30;;;;;;;1770.95;999.90;;;;;;;-0.09;100.00;101972.72;5015013;28;20052;-82
2022/03/04 09:07:02;;;;;;;1801.80;999.90;;;;;;;-0.09;100.00;101960.16;5009348;28;20052;-82
2022/03/04 09:09:38;;;;;;;1883.85;999.90;;;;;;;0.12;100.00;101970.22;5012553;28;20048;-82
2022/03/04 09:12:07;;;;;;;1842.65;999.90;;;;;;;0.16;100.00;101968.84;5013244;28;20049;-82
2022/03/04 09:14:35;;;;;;;1885.35;999.90;;;;;;;0.24;100.00;101967.97;5008487;28;20060;-81
2022/03/04 09:17:05;;;;;;;1908.15;999.90;;;;;;;0.28;100.00;101947.84;5002273;28;20820;-81
2022/03/04 09:19:34;;;;;;;1914.43;999.90;;;;;;;0.38;100.00;101966.34;5005924;28;20064;-82
2022/03/04 09:22:03;;;;;;;1923.05;999.90;;;;;;;0.53;100.00;101978.97;5010484;28;20049;-82
2022/03/04 09:24:36;;;;;;;1934.35;999.90;;;;;;;0.60;100.00;101983.41;5008013;28;20318;-82
2022/03/04 09:27:10;;;;;;;1958.57;999.90;;;;;;;0.77;100.00;101977.88;5006630;28;20053;-82
2022/03/04 09:29:43;;;;;;;1998.32;999.90;;;;;;;0.77;100.00;101996.66;5012468;28;20060;-82
2022/03/04 09:32:17;;;;;;;1999.90;999.90;;;;;;;0.65;100.00;101994.41;5010611;28;20053;-82
2022/03/04 09:34:51;;;;;;;1999.90;999.90;;;;;;;0.76;100.00;101992.28;5001627;28;20053;-81
2022/03/04 09:37:19;;;;;;;1999.90;999.90;;;;;;;0.75;100.00;101983.44;5004939;28;20841;-84
2022/03/04 09:39:52;;;;;;;1999.90;999.90;;;;;;;0.99;100.00;101984.19;5006433;28;20498;-81
2022/03/04 09:42:25;;;;;;;1999.90;999.90;;;;;;;1.13;100.00;101978.03;5003388;28;21968;-81
2022/03/04 09:44:56;;;;;;;1999.90;999.90;;;;;;;1.29;100.00;101984.22;4999949;28;20057;-82
2022/03/04 09:47:31;;;;;;;1999.90;999.90;;;;;;;1.28;100.00;101986.03;5007603;28;20053;-82
2022/03/04 09:50:01;;;;;;;1999.90;999.90;;;;;;;1.41;100.00;101987.25;5006590;28;20050;-82
2022/03/04 09:52:35;;;;;;;1999.90;999.90;;;;;;;1.44;100.00;101994.94;5000499;28;20060;-81
2022/03/04 09:55:09;;;;;;;1999.90;999.90;;;;;;;1.46;100.00;102006.28;4999673;28;20073;-82
2022/03/04 09:57:40;;;;;;;1999.90;999.90;;;;;;;1.47;100.00;102002.59;5009590;28;20068;-82
2022/03/04 10:00:11;;;;;;;1999.90;999.90;;;;;;;1.59;100.00;101997.56;5011009;28;20068;-82
2022/03/04 10:02:47;;;;;;;1999.90;999.90;;;;;;;1.74;100.00;102006.47;5015329;28;20052;-82
2022/03/04 10:05:15;;;;;;;1999.90;999.90;;;;;;;1.77;100.00;102011.44;5000392;28;20062;-82
2022/03/04 10:07:50;;;;;;;1999.90;999.90;;;;;;;1.81;100.00;102004.69;5001663;28;20045;-83
2022/03/04 10:10:23;;;;;;;1999.90;999.90;;;;;;;1.98;100.00;102009.81;5002620;28;20053;-81
2022/03/04 10:12:58;;;;;;;1999.90;999.90;;;;;;;1.88;100.00;102020.88;5006638;28;20053;-81
2022/03/04 10:15:26;;;;;;;1999.90;999.90;;;;;;;1.84;100.00;102015.03;5001096;28;20310;-81
2022/03/04 10:18:05;;;;;;;1999.90;999.90;;;;;;;2.12;100.00;102011.63;5000848;28;20046;-81
2022/03/04 10:20:42;;;;;;;1999.90;999.90;;;;;;;2.15;100.00;102011.22;5010053;28;20052;-80
2022/03/04 10:23:18;;;;;;;1999.90;999.90;;;;;;;2.06;100.00;102015.06;5006419;28;20072;-80
2022/03/04 10:25:53;;;;;;;1999.90;999.90;;;;;;;1.99;100.00;102012.31;5007012;28;20062;-80
2022/03/04 10:28:29;;;;;;;1999.90;999.90;;;;;;;2.14;100.00;102016.78;5001894;28;20050;-80
2022/03/04 10:30:58;;;;;;;1999.90;999.90;;;;;;;2.13;100.00;102015.97;5000028;28;20045;-81
2022/03/04 10:33:33;;;;;;;1999.90;999.90;;;;;;;2.22;100.00;102008.63;5006203;28;20670;-81
2022/03/04 10:36:08;;;;;;;1999.90;999.90;;;;;;;2.10;100.00;102007.44;5001255;28;20526;-80
2022/03/04 10:38:42;;;;;;;1999.90;999.90;;;;;;;2.10;100.00;102010.13;4966937;28;1036546;-80
2022/03/04 10:41:24;;;;;;;1999.90;999.90;;;;;;;2.06;100.00;102006.16;5004771;28;20057;-80
2022/03/04 10:43:57;;;;;;;1999.90;999.90;;;;;;;1.92;100.00;102005.19;5009011;28;20057;-80
2022/03/04 10:46:55;;;;;;;1999.90;999.90;;;;;;;1.93;100.00;101998.81;5000691;28;20060;-80
2022/03/04 10:49:30;;;;;;;1999.90;999.90;;;;;;;1.80;100.00;101999.50;5000210;28;20046;-80
2022/03/04 10:52:08;;;;;;;1999.90;999.90;;;;;;;1.78;100.00;101988.97;5007003;28;20050;-80
2022/03/04 10:54:51;;;;;;;1999.90;999.90;;;;;;;1.68;100.00;101991.91;4999929;28;20087;-80
2022/03/04 10:57:24;;;;;;;1999.90;999.90;;;;;;;1.71;100.00;101982.66;5002425;28;20053;-80
2022/03/04 11:00:04;;;;;;;1999.90;999.90;;;;;;;1.76;100.00;101976.75;5008814;28;20046;-81
2022/03/04 11:02:43;;;;;;;1999.90;999.90;;;;;;;1.76;100.00;101977.56;5011241;28;20058;-80